Time;durP1;ratioP1;P1;durP2;ratioP2;P2;SDS_P1;SDS_P2;PMS_P1;PMS_P2;Temp;Humidity;BMP_temperature;BMP_pressure;BME280_temperature;BME280_humidity;BME280_pressure;Samples;Min_cycle;Max_cycle;Signal;HPM_P1;HPM_P2
2023/03/13 00:00:18;;;;;;;13.30;3.27;;;;;;;8.33;100.00;99717.84;695843;28;1190;-59
2023/03/13 00:00:38;;;;;;;14.23;3.80;;;;;;;8.36;100.00;99723.00;695515;28;1202;-59
2023/03/13 00:01:00;;;;;;;12.82;3.65;;;;;;;8.41;100.00;99723.00;695728;28;4223;-59
2023/03/13 00:01:27;;;;;;;11.40;3.10;;;;;;;8.38;100.00;99716.06;698204;28;1285;-59
2023/03/13 00:01:48;;;;;;;16.08;3.42;;;;;;;8.37;100.00;99719.53;701518;28;1445;-60
2023/03/13 00:02:08;;;;;;;14.93;3.33;;;;;;;8.37;100.00;99714.34;700100;28;1511;-60
2023/03/13 00:02:29;;;;;;;13.27;3.43;;;;;;;8.41;100.00;99728.19;700799;28;1137;-59
2023/03/13 00:02:49;;;;;;;13.05;3.45;;;;;;;8.38;100.00;99720.38;702376;28;1471;-62
2023/03/13 00:03:10;;;;;;;12.57;3.00;;;;;;;8.36;100.00;99728.22;701005;28;1313;-60
2023/03/13 00:03:31;;;;;;;13.27;3.45;;;;;;;8.35;100.00;99716.09;697204;28;1819;-59
2023/03/13 00:03:54;;;;;;;15.07;3.33;;;;;;;8.33;100.00;99713.53;697836;28;4390;-60
2023/03/13 00:04:14;;;;;;;12.85;3.38;;;;;;;8.30;100.00;99712.69;697774;28;1162;-59
2023/03/13 00:04:34;;;;;;;13.93;3.50;;;;;;;8.28;100.00;99707.50;696798;28;1377;-59
2023/03/13 00:04:55;;;;;;;14.30;3.70;;;;;;;8.27;100.00;99707.50;697661;28;1246;-60
2023/03/13 00:05:16;;;;;;;14.30;3.70;;;;;;;8.26;100.00;99716.19;696576;28;1150;-60
2023/03/13 00:05:36;;;;;;;16.23;3.25;;;;;;;8.26;100.00;99716.19;696799;28;2172;-58
2023/03/13 00:05:57;;;;;;;15.48;3.20;;;;;;;8.28;100.00;99717.03;693229;28;2144;-59
2023/03/13 00:06:18;;;;;;;13.18;3.38;;;;;;;8.39;100.00;99710.00;695550;28;1232;-59
2023/03/13 00:06:39;;;;;;;13.65;3.10;;;;;;;8.48;100.00;99717.72;695890;28;1357;-60
2023/03/13 00:06:59;;;;;;;14.43;3.15;;;;;;;8.46;100.00;99709.06;694066;28;4305;-59
2023/03/13 00:07:20;;;;;;;14.50;3.77;;;;;;;8.44;100.00;99705.56;693098;28;1111;-60
2023/03/13 00:07:40;;;;;;;12.55;3.40;;;;;;;8.44;100.00;99704.72;694070;28;1234;-60
2023/03/13 00:08:01;;;;;;;13.17;3.20;;;;;;;8.41;100.00;99708.22;697875;28;1213;-60
2023/03/13 00:08:21;;;;;;;12.32;3.03;;;;;;;8.43;100.00;99703.88;693766;28;1071;-60
2023/03/13 00:08:43;;;;;;;15.47;3.03;;;;;;;8.41;100.00;99705.59;695137;28;1309;-60
2023/03/13 00:09:07;;;;;;;15.77;3.20;;;;;;;8.44;100.00;99705.56;698511;28;1383;-59
2023/03/13 00:09:27;;;;;;;12.35;2.95;;;;;;;8.42;100.00;99698.66;693275;28;1470;-60
2023/03/13 00:09:48;;;;;;;11.35;3.33;;;;;;;8.40;100.00;99697.81;693872;28;4279;-59
2023/03/13 00:10:09;;;;;;;13.60;3.33;;;;;;;8.40;100.00;99696.06;691667;28;1431;-60
2023/03/13 00:10:29;;;;;;;11.70;2.97;;;;;;;8.38;100.00;99690.03;691333;28;1296;-59
2023/03/13 00:10:51;;;;;;;14.40;3.40;;;;;;;8.37;100.00;99693.50;692494;28;1174;-60
2023/03/13 00:11:14;;;;;;;14.18;3.75;;;;;;;8.35;100.00;99690.06;693668;28;1385;-59
2023/03/13 00:11:34;;;;;;;14.85;3.70;;;;;;;8.38;100.00;99694.34;695640;28;1337;-60
2023/03/13 00:11:55;;;;;;;14.77;3.72;;;;;;;8.40;100.00;99684.78;691973;28;1321;-60
2023/03/13 00:12:16;;;;;;;12.80;3.40;;;;;;;8.42;100.00;99689.09;692252;28;1898;-59
2023/03/13 00:12:40;;;;;;;11.90;2.80;;;;;;;8.45;100.00;99683.88;693238;28;1520;-60
2023/03/13 00:13:00;;;;;;;10.38;3.10;;;;;;;8.51;100.00;99677.75;692843;28;4388;-60
2023/03/13 00:13:22;;;;;;;11.35;3.33;;;;;;;8.58;100.00;99678.53;694043;28;1697;-60
2023/03/13 00:13:43;;;;;;;12.60;3.20;;;;;;;8.58;100.00;99678.53;696405;28;1301;-60
2023/03/13 00:14:04;;;;;;;13.95;3.05;;;;;;;8.52;100.00;99667.31;696755;28;1383;-59
2023/03/13 00:14:28;;;;;;;14.50;3.25;;;;;;;8.51;100.00;99673.41;695578;28;1257;-59
2023/03/13 00:14:48;;;;;;;11.88;2.75;;;;;;;8.49;100.00;99671.72;699045;28;1353;-60
2023/03/13 00:15:09;;;;;;;13.03;2.83;;;;;;;8.46;100.00;99675.19;701151;28;1372;-59
2023/03/13 00:15:30;;;;;;;13.93;3.28;;;;;;;8.44;100.00;99682.13;699831;28;1364;-59
2023/03/13 00:15:58;;;;;;;11.73;3.30;;;;;;;8.44;100.00;99669.09;699981;28;4288;-59
2023/03/13 00:16:19;;;;;;;13.02;3.22;;;;;;;8.45;100.00;99668.25;696699;28;1583;-59
2023/03/13 00:16:39;;;;;;;13.17;3.50;;;;;;;8.54;100.00;99663.81;697346;28;1496;-60
2023/03/13 00:17:01;;;;;;;14.00;3.33;;;;;;;8.61;100.00;99657.66;698765;28;1345;-60
2023/03/13 00:17:22;;;;;;;14.23;3.47;;;;;;;8.57;100.00;99658.56;696808;28;1262;-60
2023/03/13 00:17:42;;;;;;;11.83;3.33;;;;;;;8.55;100.00;99665.56;698722;28;1296;-60
2023/03/13 00:18:03;;;;;;;14.05;3.35;;;;;;;8.63;100.00;99653.28;696006;28;1313;-59
2023/03/13 00:18:23;;;;;;;14.10;3.65;;;;;;;8.55;100.00;99649.94;695282;28;1512;-59
2023/03/13 00:18:49;;;;;;;12.40;3.20;;;;;;;8.51;100.00;99662.13;695570;28;4389;-60
2023/03/13 00:19:10;;;;;;;14.88;3.40;;;;;;;8.51;100.00;99657.78;696972;28;1369;-60
2023/03/13 00:19:30;;;;;;;11.73;3.00;;;;;;;8.53;100.00;99657.75;697305;28;1217;-60
2023/03/13 00:19:51;;;;;;;12.80;3.30;;;;;;;8.50;100.00;99658.66;695573;28;1388;-60
2023/03/13 00:20:11;;;;;;;12.83;3.27;;;;;;;8.50;100.00;99663.88;695033;28;3545;-60
2023/03/13 00:20:31;;;;;;;11.90;2.97;;;;;;;8.50;100.00;99660.38;691775;28;1373;-60
2023/03/13 00:21:06;;;;;;;13.53;3.07;;;;;;;8.44;100.00;99653.47;693077;28;1405;-60
2023/03/13 00:21:28;;;;;;;9.95;2.67;;;;;;;8.41;100.00;99660.47;691975;28;1737;-59
2023/03/13 00:21:48;;;;;;;12.02;2.80;;;;;;;8.41;100.00;99658.72;690364;28;4341;-59
2023/03/13 00:22:12;;;;;;;11.97;3.00;;;;;;;8.48;100.00;99660.41;691438;28;1224;-59
2023/03/13 00:22:32;;;;;;;13.43;3.20;;;;;;;8.52;100.00;99650.81;698093;28;1286;-60
2023/03/13 00:22:52;;;;;;;11.87;3.30;;;;;;;8.49;100.00;99654.31;696876;28;1230;-59
2023/03/13 00:23:13;;;;;;;12.67;3.20;;;;;;;8.48;100.00;99649.97;697767;28;1243;-60
2023/03/13 00:23:35;;;;;;;14.43;3.80;;;;;;;8.46;100.00;99646.56;699220;28;1202;-60
2023/03/13 00:23:58;;;;;;;11.75;3.33;;;;;;;8.45;100.00;99657.00;696310;28;1130;-59
2023/03/13 00:24:18;;;;;;;11.52;3.25;;;;;;;8.48;100.00;99644.78;695412;28;1524;-60
2023/03/13 00:24:39;;;;;;;10.53;2.93;;;;;;;8.50;100.00;99648.25;696677;28;1455;-60
2023/03/13 00:24:59;;;;;;;14.97;3.20;;;;;;;8.54;100.00;99648.19;696132;28;4354;-60
2023/03/13 00:25:20;;;;;;;13.15;3.30;;;;;;;8.49;100.00;99651.72;695625;28;1575;-59
2023/03/13 00:25:40;;;;;;;14.20;3.00;;;;;;;8.46;100.00;99643.06;695117;28;1196;-60
2023/03/13 00:26:03;;;;;;;13.87;3.13;;;;;;;8.44;100.00;99639.59;700487;28;1030;-60
2023/03/13 00:26:26;;;;;;;15.15;3.30;;;;;;;8.42;100.00;99639.63;696399;28;1205;-60
2023/03/13 00:26:46;;;;;;;13.20;2.95;;;;;;;8.44;100.00;99643.06;698015;28;1380;-59
2023/03/13 00:27:06;;;;;;;13.77;3.07;;;;;;;8.51;100.00;99643.88;698221;28;1290;-60
2023/03/13 00:27:31;;;;;;;12.40;2.90;;;;;;;8.48;100.00;99642.16;697492;28;1210;-59
2023/03/13 00:27:51;;;;;;;14.00;3.08;;;;;;;8.51;100.00;99644.75;694625;28;4375;-59
2023/03/13 00:28:11;;;;;;;10.90;3.10;;;;;;;8.54;100.00;99635.16;694804;28;1342;-60
2023/03/13 00:28:34;;;;;;;14.18;3.20;;;;;;;8.51;100.00;99636.94;694898;28;1404;-60
2023/03/13 00:28:55;;;;;;;12.45;3.30;;;;;;;8.48;100.00;99636.97;697331;28;1309;-59
2023/03/13 00:29:16;;;;;;;12.57;3.53;;;;;;;8.47;100.00;99635.25;698195;28;1569;-60
2023/03/13 00:29:36;;;;;;;15.57;3.40;;;;;;;8.47;100.00;99630.06;698380;28;1731;-59
2023/03/13 00:29:57;;;;;;;12.60;3.22;;;;;;;8.46;100.00;99637.84;695381;28;1306;-59
2023/03/13 00:30:17;;;;;;;12.37;3.20;;;;;;;8.48;100.00;99629.16;693958;28;1266;-59
2023/03/13 00:30:37;;;;;;;11.40;3.30;;;;;;;8.50;100.00;99629.13;692885;28;1449;-60
2023/03/13 00:31:15;;;;;;;11.97;3.30;;;;;;;8.59;100.00;99630.78;687438;28;4376;-60
2023/03/13 00:31:38;;;;;;;13.07;3.25;;;;;;;8.55;100.00;99623.88;684171;28;2141;-60
2023/03/13 00:32:00;;;;;;;12.68;3.15;;;;;;;8.56;100.00;99630.81;688399;28;1441;-59
2023/03/13 00:32:20;;;;;;;13.80;3.00;;;;;;;8.55;100.00;99623.88;684899;28;1912;-60
2023/03/13 00:32:43;;;;;;;14.30;3.20;;;;;;;8.56;100.00;99623.84;685166;28;1626;-60
2023/03/13 00:33:03;;;;;;;14.70;3.33;;;;;;;8.60;100.00;99617.72;687854;28;1311;-60
2023/03/13 00:33:24;;;;;;;11.40;3.10;;;;;;;8.56;100.00;99620.41;686658;28;1235;-60
2023/03/13 00:33:46;;;;;;;10.37;3.10;;;;;;;8.54;100.00;99624.75;686414;28;4627;-60
2023/03/13 00:34:08;;;;;;;14.00;3.55;;;;;;;8.58;100.00;99621.22;691352;28;1330;-60
2023/03/13 00:34:30;;;;;;;12.35;3.05;;;;;;;8.57;100.00;99620.38;693582;28;1663;-60
2023/03/13 00:34:52;;;;;;;12.43;3.30;;;;;;;8.58;100.00;99619.47;693207;28;1451;-60
2023/03/13 00:35:13;;;;;;;11.93;3.00;;;;;;;8.56;100.00;99623.84;692875;28;1254;-59
2023/03/13 00:35:33;;;;;;;14.10;3.17;;;;;;;8.57;100.00;99617.75;693222;28;1368;-60
2023/03/13 00:35:58;;;;;;;14.55;3.70;;;;;;;8.56;100.00;99616.03;691934;28;1204;-60
2023/03/13 00:36:24;;;;;;;12.10;3.17;;;;;;;8.56;100.00;99620.41;691200;28;1416;-60
2023/03/13 00:36:45;;;;;;;11.45;3.05;;;;;;;8.57;100.00;99615.16;693371;28;4370;-61
2023/03/13 00:37:06;;;;;;;11.57;3.38;;;;;;;8.60;100.00;99622.06;693967;28;1488;-60
2023/03/13 00:37:26;;;;;;;13.13;3.20;;;;;;;8.63;100.00;99616.81;694674;28;1140;-60
2023/03/13 00:37:47;;;;;;;11.70;3.03;;;;;;;8.62;100.00;99621.16;695420;28;1579;-60
2023/03/13 00:38:08;;;;;;;13.97;3.40;;;;;;;8.71;100.00;99614.97;693637;28;1473;-60
2023/03/13 00:38:29;;;;;;;16.85;3.47;;;;;;;8.76;100.00;99620.09;690462;28;1519;-59
2023/03/13 00:38:54;;;;;;;12.05;2.85;;;;;;;8.72;100.00;99618.44;690102;28;5384;-60
2023/03/13 00:39:15;;;;;;;14.27;3.38;;;;;;;8.69;100.00;99616.72;688878;28;1416;-60
2023/03/13 00:39:35;;;;;;;12.63;3.30;;;;;;;8.67;100.00;99616.75;687204;28;1412;-59
2023/03/13 00:39:56;;;;;;;13.07;2.88;;;;;;;8.67;100.00;99610.69;686982;28;4304;-60
2023/03/13 00:40:16;;;;;;;13.40;3.00;;;;;;;8.64;100.00;99613.31;689278;28;1206;-59
2023/03/13 00:40:37;;;;;;;12.50;2.92;;;;;;;8.64;100.00;99611.59;692369;28;1390;-60
2023/03/13 00:41:06;;;;;;;12.43;3.50;;;;;;;8.68;100.00;99615.88;691687;28;1322;-59
2023/03/13 00:41:29;;;;;;;15.52;3.60;;;;;;;8.71;100.00;99617.56;692421;28;1457;-59
2023/03/13 00:41:50;;;;;;;11.60;3.03;;;;;;;8.64;100.00;99608.97;687740;28;1689;-60
2023/03/13 00:42:11;;;;;;;12.52;3.00;;;;;;;8.64;100.00;99608.09;689227;28;1559;-59
2023/03/13 00:42:31;;;;;;;13.40;2.80;;;;;;;8.72;100.00;99610.63;687162;28;1649;-58
2023/03/13 00:42:52;;;;;;;14.87;2.90;;;;;;;8.70;100.00;99613.25;685039;28;4349;-59
2023/03/13 00:43:12;;;;;;;13.32;3.10;;;;;;;8.73;100.00;99610.59;686726;28;1408;-59
2023/03/13 00:43:34;;;;;;;11.40;2.83;;;;;;;8.71;100.00;99607.16;689372;28;1219;-60
2023/03/13 00:43:54;;;;;;;11.63;2.90;;;;;;;8.74;100.00;99612.31;688885;28;1447;-59
2023/03/13 00:44:15;;;;;;;14.07;2.97;;;;;;;8.81;100.00;99615.69;689410;28;1316;-60
2023/03/13 00:44:35;;;;;;;14.60;3.20;;;;;;;8.86;100.00;99609.53;686725;28;1367;-60
2023/03/13 00:44:56;;;;;;;12.60;3.03;;;;;;;8.87;100.00;99615.59;688512;28;1410;-60
2023/03/13 00:45:18;;;;;;;11.77;3.05;;;;;;;8.88;100.00;99611.28;684927;28;1465;-59
2023/03/13 00:45:38;;;;;;;13.30;3.30;;;;;;;8.83;100.00;99612.19;684048;28;1414;-60
2023/03/13 00:45:59;;;;;;;14.23;2.97;;;;;;;8.81;100.00;99608.72;689310;28;4267;-59
2023/03/13 00:46:22;;;;;;;14.27;3.13;;;;;;;8.79;100.00;99609.63;690719;28;1220;-60
2023/03/13 00:46:42;;;;;;;15.43;2.97;;;;;;;8.77;100.00;99608.81;691962;28;1344;-60
2023/03/13 00:47:04;;;;;;;17.35;3.05;;;;;;;8.78;100.00;99611.38;694449;28;1500;-59
2023/03/13 00:47:24;;;;;;;14.27;2.88;;;;;;;8.73;100.00;99605.38;694709;28;1253;-60
2023/03/13 00:47:45;;;;;;;13.68;3.38;;;;;;;8.74;100.00;99604.50;691505;28;1386;-60
2023/03/13 00:48:05;;;;;;;13.75;3.20;;;;;;;8.85;100.00;99602.59;691268;28;1554;-59
2023/03/13 00:48:26;;;;;;;12.13;3.10;;;;;;;8.88;100.00;99601.69;690387;28;1192;-60
2023/03/13 00:48:47;;;;;;;11.10;2.75;;;;;;;8.84;100.00;99606.06;690588;28;4554;-60
2023/03/13 00:49:10;;;;;;;11.80;2.97;;;;;;;8.82;100.00;99596.56;690128;28;2069;-59
2023/03/13 00:49:31;;;;;;;10.80;2.80;;;;;;;8.89;100.00;99594.72;687139;28;1339;-61
2023/03/13 00:49:51;;;;;;;11.70;2.67;;;;;;;8.95;100.00;99592.03;687197;28;1469;-60
2023/03/13 00:50:12;;;;;;;10.07;2.47;;;;;;;9.10;100.00;99601.38;686346;28;1458;-60
2023/03/13 00:50:32;;;;;;;10.30;2.60;;;;;;;9.07;100.00;99599.66;680367;28;1308;-60
2023/03/13 00:50:53;;;;;;;11.87;3.17;;;;;;;9.01;100.00;99594.53;680660;28;1393;-59
2023/03/13 00:51:15;;;;;;;13.10;2.90;;;;;;;8.95;100.00;99597.25;682609;28;1362;-59
2023/03/13 00:51:36;;;;;;;14.40;2.85;;;;;;;8.98;100.00;99592.84;685311;28;1378;-60
2023/03/13 00:51:56;;;;;;;12.05;2.70;;;;;;;9.05;100.00;99588.41;689337;28;4317;-59
2023/03/13 00:52:17;;;;;;;12.05;2.90;;;;;;;9.01;100.00;99591.94;689010;28;1914;-60
2023/03/13 00:52:40;;;;;;;14.70;3.20;;;;;;;9.03;100.00;99592.78;691889;28;2138;-61
2023/03/13 00:53:01;;;;;;;13.98;3.13;;;;;;;9.02;100.00;99591.06;690121;28;1327;-60
2023/03/13 00:53:22;;;;;;;13.60;2.90;;;;;;;8.99;100.00;99586.75;690578;28;1312;-60
2023/03/13 00:53:46;;;;;;;14.63;2.73;;;;;;;8.98;100.00;99591.97;691032;28;1094;-59
2023/03/13 00:54:08;;;;;;;11.98;2.70;;;;;;;8.99;100.00;99591.09;689825;28;1219;-60
2023/03/13 00:54:28;;;;;;;12.95;3.28;;;;;;;9.00;100.00;99595.44;695219;28;977;-59
2023/03/13 00:54:49;;;;;;;11.20;2.73;;;;;;;9.01;100.00;99589.31;694363;28;4420;-58
2023/03/13 00:55:09;;;;;;;12.40;2.80;;;;;;;9.00;100.00;99590.22;693851;28;1369;-59
2023/03/13 00:55:30;;;;;;;14.52;2.95;;;;;;;9.01;100.00;99592.81;689507;28;1396;-59
2023/03/13 00:56:05;;;;;;;15.30;3.80;;;;;;;8.99;100.00;99598.94;690097;28;1318;-59
2023/03/13 00:56:27;;;;;;;12.27;3.10;;;;;;;8.99;100.00;99593.72;690879;28;1002;-59
2023/03/13 00:56:47;;;;;;;14.23;3.13;;;;;;;8.96;100.00;99594.63;691288;28;1779;-59
2023/03/13 00:57:08;;;;;;;12.77;2.90;;;;;;;8.94;100.00;99592.91;692025;28;1222;-60
2023/03/13 00:57:28;;;;;;;13.80;3.22;;;;;;;8.94;100.00;99595.53;693436;28;1067;-59
2023/03/13 00:57:49;;;;;;;12.77;2.90;;;;;;;8.98;100.00;99597.19;693673;28;4378;-60
2023/03/13 00:58:09;;;;;;;13.60;2.97;;;;;;;8.97;100.00;99590.25;694968;28;1178;-59
2023/03/13 00:58:33;;;;;;;11.57;2.85;;;;;;;8.93;100.00;99591.19;692463;28;1499;-59
2023/03/13 00:58:54;;;;;;;14.25;2.92;;;;;;;8.89;100.00;99592.13;692851;28;1031;-59
2023/03/13 00:59:14;;;;;;;11.97;2.67;;;;;;;8.99;100.00;99588.50;695205;28;1064;-59
2023/03/13 00:59:34;;;;;;;13.03;2.60;;;;;;;9.05;100.00;99588.41;694895;28;1159;-59
2023/03/13 00:59:55;;;;;;;9.77;2.50;;;;;;;8.99;100.00;99585.91;692537;28;1253;-60
2023/03/13 01:00:16;;;;;;;10.77;2.87;;;;;;;9.01;100.00;99586.72;692871;28;1001;-60
2023/03/13 01:00:36;;;;;;;11.10;2.90;;;;;;;8.96;100.00;99588.56;694520;28;1055;-59
2023/03/13 01:00:56;;;;;;;11.57;2.63;;;;;;;8.94;100.00;99585.94;694078;28;4395;-60
2023/03/13 01:01:29;;;;;;;11.27;2.63;;;;;;;8.92;100.00;99592.09;692988;28;1291;-59
2023/03/13 01:01:49;;;;;;;12.38;2.75;;;;;;;8.98;100.00;99585.00;692144;28;1444;-60
2023/03/13 01:02:10;;;;;;;15.10;2.90;;;;;;;8.96;100.00;99591.16;691635;28;1641;-59
2023/03/13 01:02:30;;;;;;;13.15;2.78;;;;;;;8.95;100.00;99592.03;690821;28;1064;-59
2023/03/13 01:02:51;;;;;;;10.63;2.63;;;;;;;8.89;100.00;99592.13;694606;28;1661;-59
2023/03/13 01:03:14;;;;;;;10.32;2.78;;;;;;;8.85;100.00;99586.97;692798;28;1337;-60
2023/03/13 01:03:38;;;;;;;13.73;3.03;;;;;;;8.95;100.00;99592.03;692169;28;1250;-61
2023/03/13 01:04:02;;;;;;;15.70;3.53;;;;;;;8.90;100.00;99592.09;691837;28;4232;-59
2023/03/13 01:04:24;;;;;;;14.77;2.83;;;;;;;8.88;100.00;99588.66;692852;28;961;-59
2023/03/13 01:04:44;;;;;;;15.73;3.20;;;;;;;8.82;100.00;99591.34;694212;28;1188;-59
2023/03/13 01:05:05;;;;;;;16.63;3.10;;;;;;;8.78;100.00;99587.94;697058;28;1163;-59
2023/03/13 01:05:25;;;;;;;14.40;3.03;;;;;;;8.73;100.00;99587.13;694229;28;1183;-59
2023/03/13 01:05:55;;;;;;;14.50;2.88;;;;;;;8.75;100.00;99590.59;694041;28;1172;-59
2023/03/13 01:06:19;;;;;;;12.05;3.00;;;;;;;8.78;100.00;99587.94;689779;28;1303;-60
2023/03/13 01:06:41;;;;;;;11.20;2.58;;;;;;;8.80;100.00;99591.38;691056;28;2026;-59
2023/03/13 01:07:02;;;;;;;13.27;3.15;;;;;;;8.78;100.00;99584.47;693548;28;4577;-59
2023/03/13 01:07:22;;;;;;;12.80;2.87;;;;;;;8.76;100.00;99587.09;693465;28;1152;-59
2023/03/13 01:07:43;;;;;;;11.07;2.93;;;;;;;8.74;100.00;99582.81;694619;28;1159;-60
2023/03/13 01:08:03;;;;;;;12.83;2.90;;;;;;;8.71;100.00;99588.91;689703;28;1571;-59
2023/03/13 01:08:24;;;;;;;14.35;2.67;;;;;;;8.71;100.00;99582.81;687211;28;1208;-58
2023/03/13 01:08:44;;;;;;;13.32;2.85;;;;;;;8.68;100.00;99588.94;688800;28;1219;-59
2023/03/13 01:09:06;;;;;;;12.77;3.03;;;;;;;8.67;100.00;99582.03;688020;28;1199;-58
2023/03/13 01:09:27;;;;;;;14.00;2.67;;;;;;;8.72;100.00;99580.19;687483;28;1002;-60
2023/03/13 01:09:47;;;;;;;14.18;2.63;;;;;;;8.67;100.00;99582.88;688372;28;4420;-60
2023/03/13 01:10:09;;;;;;;13.10;3.20;;;;;;;8.68;100.00;99584.59;693182;28;1172;-61
2023/03/13 01:10:29;;;;;;;11.27;2.78;;;;;;;8.76;100.00;99571.44;694588;28;1109;-61
2023/03/13 01:10:56;;;;;;;13.63;3.10;;;;;;;8.74;100.00;99572.38;695550;28;1369;-58
2023/03/13 01:11:21;;;;;;;14.05;3.00;;;;;;;8.77;100.00;99573.19;693472;28;2350;-58
2023/03/13 01:11:43;;;;;;;13.75;2.83;;;;;;;8.79;100.00;99570.53;694090;28;1200;-59
2023/03/13 01:12:03;;;;;;;12.30;3.33;;;;;;;8.79;100.00;99571.44;693068;28;1336;-59
2023/03/13 01:12:24;;;;;;;13.60;3.10;;;;;;;8.78;100.00;99574.91;688110;28;2028;-58
2023/03/13 01:12:48;;;;;;;13.50;2.83;;;;;;;8.71;100.00;99570.69;689435;28;4384;-58
2023/03/13 01:13:08;;;;;;;13.25;3.15;;;;;;;8.79;100.00;99571.44;690342;28;1307;-59
2023/03/13 01:13:31;;;;;;;11.73;3.10;;;;;;;8.76;100.00;99565.38;689360;28;1119;-58
2023/03/13 01:13:57;;;;;;;11.45;2.70;;;;;;;8.68;100.00;99568.09;689952;28;1284;-59
2023/03/13 01:14:19;;;;;;;14.70;3.00;;;;;;;8.66;100.00;99569.88;692593;28;1091;-59
2023/03/13 01:14:40;;;;;;;12.73;2.80;;;;;;;8.67;100.00;99566.41;694254;28;1049;-59
2023/03/13 01:15:00;;;;;;;12.70;2.70;;;;;;;8.74;100.00;99567.16;694810;28;1249;-59
2023/03/13 01:15:21;;;;;;;12.17;2.97;;;;;;;8.80;100.00;99565.31;695804;28;1195;-57
2023/03/13 01:15:42;;;;;;;12.88;3.47;;;;;;;8.85;100.00;99565.25;695222;28;4459;-59
2023/03/13 01:16:05;;;;;;;13.30;3.53;;;;;;;8.82;100.00;99560.94;689215;28;2049;-58
2023/03/13 01:16:28;;;;;;;10.73;2.70;;;;;;;8.79;100.00;99561.00;688546;28;3382;-58
2023/03/13 01:16:48;;;;;;;14.02;2.92;;;;;;;8.78;100.00;99561.88;685782;28;1157;-59
2023/03/13 01:17:08;;;;;;;16.87;3.90;;;;;;;8.80;100.00;99561.84;687316;28;1239;-59
2023/03/13 01:17:29;;;;;;;16.05;3.33;;;;;;;8.76;100.00;99554.97;689737;28;1149;-58
2023/03/13 01:17:49;;;;;;;14.57;2.80;;;;;;;8.76;100.00;99555.81;694333;28;1145;-62
2023/03/13 01:18:10;;;;;;;12.70;2.90;;;;;;;8.77;100.00;99554.09;695301;28;1281;-59
2023/03/13 01:18:32;;;;;;;12.47;2.90;;;;;;;8.73;100.00;99555.88;695376;28;1098;-59
2023/03/13 01:18:58;;;;;;;10.70;2.72;;;;;;;8.71;100.00;99555.03;692947;28;4495;-59
2023/03/13 01:19:18;;;;;;;11.90;2.95;;;;;;;8.66;100.00;99551.63;689793;28;1473;-60
2023/03/13 01:19:39;;;;;;;13.45;2.95;;;;;;;8.63;100.00;99549.09;691465;28;1175;-58
2023/03/13 01:19:59;;;;;;;13.93;2.97;;;;;;;8.59;100.00;99547.41;690861;28;1159;-59
2023/03/13 01:20:19;;;;;;;14.23;2.90;;;;;;;8.57;100.00;99552.63;691498;28;985;-59
2023/03/13 01:20:40;;;;;;;12.60;2.80;;;;;;;8.54;100.00;99554.41;690874;28;1162;-59
2023/03/13 01:21:02;;;;;;;14.10;2.90;;;;;;;8.55;100.00;99557.00;691261;28;1307;-58
2023/03/13 01:21:23;;;;;;;12.02;2.85;;;;;;;8.57;100.00;99544.81;695373;28;960;-58
2023/03/13 01:21:45;;;;;;;12.65;2.85;;;;;;;8.67;100.00;99555.97;695593;28;4548;-59
2023/03/13 01:22:05;;;;;;;15.23;2.95;;;;;;;8.68;100.00;99545.53;693986;28;1170;-59
2023/03/13 01:22:26;;;;;;;12.52;2.75;;;;;;;8.77;100.00;99554.09;694189;28;1018;-59
2023/03/13 01:22:46;;;;;;;14.70;3.40;;;;;;;8.75;100.00;99553.22;692464;28;1152;-59
2023/03/13 01:23:07;;;;;;;14.43;3.30;;;;;;;8.81;100.00;99550.56;694476;28;1302;-59
2023/03/13 01:23:28;;;;;;;14.52;3.20;;;;;;;8.78;100.00;99546.25;694833;28;1035;-59
2023/03/13 01:23:49;;;;;;;11.83;2.57;;;;;;;8.78;100.00;99551.47;693334;28;1207;-60
2023/03/13 01:24:11;;;;;;;11.85;2.53;;;;;;;8.81;100.00;99546.19;696065;28;1219;-59
2023/03/13 01:24:34;;;;;;;13.88;3.20;;;;;;;8.77;100.00;99546.28;693844;28;1106;-60
2023/03/13 01:24:55;;;;;;;10.35;3.00;;;;;;;8.71;100.00;99547.22;693931;28;4407;-59
2023/03/13 01:25:16;;;;;;;13.00;3.27;;;;;;;8.68;100.00;99542.03;695755;28;1055;-59
2023/03/13 01:25:37;;;;;;;13.07;3.03;;;;;;;8.61;100.00;99548.22;693907;28;1245;-59
2023/03/13 01:25:58;;;;;;;12.55;2.83;;;;;;;8.62;100.00;99548.19;694951;28;1289;-58
2023/03/13 01:26:23;;;;;;;14.52;3.17;;;;;;;8.61;100.00;99545.63;693076;28;1174;-58
2023/03/13 01:26:44;;;;;;;16.63;3.35;;;;;;;8.60;100.00;99538.69;691014;28;1094;-58
2023/03/13 01:27:04;;;;;;;15.13;3.08;;;;;;;8.58;100.00;99538.72;690251;28;1192;-58
2023/03/13 01:27:24;;;;;;;14.07;2.87;;;;;;;8.61;100.00;99540.41;685882;28;1289;-58
2023/03/13 01:27:45;;;;;;;12.53;2.80;;;;;;;8.64;100.00;99542.97;683064;28;4322;-59
2023/03/13 01:28:08;;;;;;;12.30;2.73;;;;;;;8.73;100.00;99540.22;688541;28;1314;-62
2023/03/13 01:28:28;;;;;;;13.57;3.08;;;;;;;8.74;100.00;99541.97;689218;28;1318;-60
2023/03/13 01:28:49;;;;;;;13.93;3.10;;;;;;;8.75;100.00;99541.09;693138;28;1295;-60
2023/03/13 01:29:10;;;;;;;11.68;3.03;;;;;;;8.75;100.00;99537.59;690834;28;1223;-60
2023/03/13 01:29:31;;;;;;;10.97;3.03;;;;;;;8.80;100.00;99534.03;688641;28;1067;-61
2023/03/13 01:29:52;;;;;;;10.77;2.90;;;;;;;8.84;100.00;99535.72;686286;28;1573;-60
2023/03/13 01:30:13;;;;;;;12.13;2.90;;;;;;;8.80;100.00;99535.78;687787;28;1264;-59
2023/03/13 01:30:33;;;;;;;13.60;2.95;;;;;;;8.82;100.00;99529.69;685874;28;1346;-60
2023/03/13 01:30:53;;;;;;;13.93;2.97;;;;;;;8.82;100.00;99537.50;688225;28;4305;-61
2023/03/13 01:31:20;;;;;;;15.27;3.00;;;;;;;8.87;100.00;99534.81;694567;28;996;-60
2023/03/13 01:31:40;;;;;;;11.43;3.10;;;;;;;8.85;100.00;99532.22;695416;28;1199;-59
2023/03/13 01:32:01;;;;;;;12.37;3.30;;;;;;;8.83;100.00;99531.41;691703;28;1404;-61
2023/03/13 01:32:21;;;;;;;12.82;3.17;;;;;;;8.77;100.00;99535.84;693641;28;1925;-61
2023/03/13 01:32:41;;;;;;;14.70;3.47;;;;;;;8.81;100.00;99538.38;692428;28;1144;-60
2023/03/13 01:33:02;;;;;;;12.60;3.20;;;;;;;8.86;100.00;99533.97;691493;28;1156;-60
2023/03/13 01:33:22;;;;;;;14.07;3.08;;;;;;;8.97;100.00;99531.19;692545;28;951;-61
2023/03/13 01:33:45;;;;;;;13.13;3.00;;;;;;;8.96;100.00;99526.84;691995;28;4313;-61
2023/03/13 01:34:05;;;;;;;12.50;3.00;;;;;;;8.92;100.00;99526.94;689512;28;1426;-60
2023/03/13 01:34:26;;;;;;;14.95;3.40;;;;;;;8.89;100.00;99533.06;690539;28;1052;-59
2023/03/13 01:34:46;;;;;;;12.10;2.90;;;;;;;8.84;100.00;99535.72;692430;28;1180;-60
2023/03/13 01:35:07;;;;;;;11.35;2.45;;;;;;;8.84;100.00;99533.09;694092;28;1298;-60
2023/03/13 01:35:27;;;;;;;13.43;2.57;;;;;;;8.85;100.00;99528.78;690889;28;1032;-59
2023/03/13 01:35:48;;;;;;;12.60;2.80;;;;;;;8.85;100.00;99524.41;690344;28;1144;-60
2023/03/13 01:36:09;;;;;;;11.68;2.92;;;;;;;8.81;100.00;99524.50;695170;28;1175;-60
2023/03/13 01:36:30;;;;;;;12.30;3.25;;;;;;;8.82;100.00;99516.66;689969;28;1379;-60
2023/03/13 01:36:51;;;;;;;10.93;3.00;;;;;;;8.81;100.00;99525.34;687898;28;4372;-59
2023/03/13 01:37:11;;;;;;;12.77;3.08;;;;;;;8.78;100.00;99522.78;690349;28;1215;-59
2023/03/13 01:37:32;;;;;;;12.83;3.00;;;;;;;8.82;100.00;99519.25;693505;28;1326;-60
2023/03/13 01:37:52;;;;;;;13.13;2.78;;;;;;;8.85;100.00;99518.34;693074;28;1366;-60
2023/03/13 01:38:14;;;;;;;14.43;3.13;;;;;;;8.89;100.00;99519.13;696505;28;1198;-61
2023/03/13 01:38:35;;;;;;;14.05;2.83;;;;;;;8.83;100.00;99510.56;697342;28;1285;-60
2023/03/13 01:38:57;;;;;;;13.90;3.10;;;;;;;8.83;100.00;99520.97;694542;28;5279;-60
2023/03/13 01:39:18;;;;;;;15.23;3.15;;;;;;;8.81;100.00;99517.53;690354;28;1754;-60
2023/03/13 01:39:39;;;;;;;15.57;3.33;;;;;;;8.81;100.00;99517.53;692444;28;1231;-59
2023/03/13 01:40:00;;;;;;;12.75;3.00;;;;;;;8.80;100.00;99510.59;689810;28;4265;-60
2023/03/13 01:40:20;;;;;;;12.37;2.90;;;;;;;8.84;100.00;99508.78;694077;28;1298;-59
2023/03/13 01:40:44;;;;;;;14.38;3.50;;;;;;;8.83;100.00;99515.78;694009;28;1183;-60
2023/03/13 01:41:06;;;;;;;12.82;3.13;;;;;;;8.81;100.00;99514.91;696618;28;1231;-60
2023/03/13 01:41:28;;;;;;;14.85;3.08;;;;;;;8.79;100.00;99523.63;695429;28;2006;-60
2023/03/13 01:41:51;;;;;;;12.52;2.70;;;;;;;8.79;100.00;99506.28;696186;28;1163;-61
2023/03/13 01:42:13;;;;;;;13.05;2.88;;;;;;;8.79;100.00;99508.88;693147;28;1214;-60
2023/03/13 01:42:49;;;;;;;13.23;2.92;;;;;;;8.78;100.00;99512.38;691366;28;1488;-59